Time;durP1;ratioP1;P1;durP2;ratioP2;P2;SDS_P1;SDS_P2;PMS_P1;PMS_P2;Temp;Humidity;BMP_temperature;BMP_pressure;BME280_temperature;BME280_humidity;BME280_pressure;Samples;Min_cycle;Max_cycle;Signal;HPM_P1;HPM_P2
2022/03/03 00:02:24;;;;;;;315.50;149.10;;;;;;;-4.70;80.35;99363.84;105258;1271;61613;-73
2022/03/03 00:04:50;;;;;;;291.60;139.30;;;;;;;-4.73;80.57;99365.58;105289;1271;61227;-74
2022/03/03 00:07:17;;;;;;;260.50;126.70;;;;;;;-4.76;80.77;99368.52;105284;1271;61349;-74
2022/03/03 00:09:44;;;;;;;229.10;115.30;;;;;;;-4.79;81.03;99370.23;105317;1271;69107;-75
2022/03/03 00:12:10;;;;;;;287.10;136.40;;;;;;;-4.81;81.20;99372.16;105259;1271;74258;-77
2022/03/03 00:14:37;;;;;;;274.50;136.00;;;;;;;-4.83;81.24;99369.02;105080;1271;61273;-74
2022/03/03 00:17:03;;;;;;;251.00;122.20;;;;;;;-4.86;81.40;99363.47;105299;1270;61393;-76
2022/03/03 00:19:30;;;;;;;252.10;123.60;;;;;;;-4.89;81.61;99360.35;105264;1270;74604;-71
2022/03/03 00:21:57;;;;;;;300.30;145.40;;;;;;;-4.93;81.65;99357.23;105281;1269;61483;-75
2022/03/03 00:24:23;;;;;;;320.60;147.60;;;;;;;-4.95;81.81;99351.52;105685;1271;74643;-72
2022/03/03 00:26:50;;;;;;;338.10;157.70;;;;;;;-4.97;81.96;99350.64;105279;1270;61270;-74
2022/03/03 00:29:17;;;;;;;337.50;160.10;;;;;;;-5.00;82.16;99354.10;105284;1270;61180;-74
2022/03/03 00:31:43;;;;;;;350.60;164.00;;;;;;;-5.02;82.22;99354.80;105277;1271;75248;-76
2022/03/03 00:34:10;;;;;;;324.00;151.10;;;;;;;-5.04;82.25;99351.84;105297;1271;69679;-75
2022/03/03 00:36:36;;;;;;;387.10;180.80;;;;;;;-5.08;82.47;99347.52;105257;1271;61362;-74
2022/03/03 00:39:04;;;;;;;350.90;165.50;;;;;;;-5.10;82.80;99344.56;105004;1271;61342;-76
2022/03/03 00:41:30;;;;;;;382.70;175.20;;;;;;;-5.13;83.05;99338.50;105331;1270;61200;-74
2022/03/03 00:43:57;;;;;;;354.00;171.00;;;;;;;-5.15;82.93;99335.89;104558;1270;1003851;-75
2022/03/03 00:46:26;;;;;;;391.30;186.40;;;;;;;-5.15;83.28;99337.45;105318;1270;68218;-76
2022/03/03 00:48:54;;;;;;;378.00;176.30;;;;;;;-5.15;83.37;99336.77;105270;1270;74136;-76
2022/03/03 00:51:22;;;;;;;383.50;176.10;;;;;;;-5.16;83.40;99331.20;105377;1271;61258;-74
2022/03/03 00:53:50;;;;;;;323.20;149.50;;;;;;;-5.17;83.64;99331.55;104992;1270;424297;-75
2022/03/03 00:56:18;;;;;;;338.70;163.30;;;;;;;-5.19;83.83;99332.59;105426;1269;75528;-76
2022/03/03 00:58:46;;;;;;;310.20;151.30;;;;;;;-5.20;84.03;99331.21;105325;1270;69548;-76
2022/03/03 01:01:13;;;;;;;316.20;147.80;;;;;;;-5.21;83.89;99330.68;105318;1271;73192;-74
2022/03/03 01:03:39;;;;;;;319.00;151.50;;;;;;;-5.23;83.88;99324.63;105291;1270;61369;-76
2022/03/03 01:06:07;;;;;;;327.20;151.30;;;;;;;-5.26;83.80;99319.77;105331;1270;61243;-75
2022/03/03 01:08:33;;;;;;;316.00;148.60;;;;;;;-5.29;83.93;99316.47;105294;1271;73600;-75
2022/03/03 01:11:00;;;;;;;307.10;147.40;;;;;;;-5.33;84.35;99315.60;105322;1270;69315;-75
2022/03/03 01:13:26;;;;;;;302.30;147.90;;;;;;;-5.35;84.34;99311.27;105252;1270;61256;-75
2022/03/03 01:15:53;;;;;;;310.70;146.40;;;;;;;-5.38;84.45;99307.45;105006;1271;61459;-76
2022/03/03 01:18:21;;;;;;;336.00;155.30;;;;;;;-5.39;84.38;99308.83;105328;1270;61284;-75
2022/03/03 01:20:47;;;;;;;346.30;156.90;;;;;;;-5.40;84.53;99309.17;105318;1270;75048;-74
2022/03/03 01:23:14;;;;;;;341.20;155.20;;;;;;;-5.41;84.62;99315.41;105145;1273;69410;-76
2022/03/03 01:25:41;;;;;;;352.30;160.50;;;;;;;-5.41;84.91;99315.23;105324;1270;74544;-76
2022/03/03 01:28:07;;;;;;;325.50;155.40;;;;;;;-5.39;84.99;99306.74;105315;1270;61316;-76
2022/03/03 01:30:34;;;;;;;318.50;153.80;;;;;;;-5.40;84.98;99304.84;106363;1270;61262;-75
2022/03/03 01:33:00;;;;;;;327.70;152.70;;;;;;;-5.43;85.20;99304.84;106523;1270;61203;-74
2022/03/03 01:35:27;;;;;;;347.40;150.60;;;;;;;-5.45;85.20;99306.05;105778;1270;61327;-76
2022/03/03 01:37:53;;;;;;;330.00;156.60;;;;;;;-5.48;85.18;99305.86;105311;1270;61475;-74
2022/03/03 01:40:22;;;;;;;342.00;159.50;;;;;;;-5.50;85.26;99308.11;105287;1271;61491;-74
2022/03/03 01:42:53;;;;;;;354.50;162.80;;;;;;;-5.49;85.56;99305.86;105295;1270;62020;-75
2022/03/03 01:45:20;;;;;;;361.30;163.50;;;;;;;-5.49;85.66;99298.25;105318;1270;75290;-75
2022/03/03 01:47:46;;;;;;;346.30;162.00;;;;;;;-5.52;85.66;99294.79;105275;1270;68418;-73
2022/03/03 01:50:13;;;;;;;370.70;169.10;;;;;;;-5.55;85.75;99290.27;105280;1271;61375;-74
2022/03/03 01:52:39;;;;;;;360.60;169.30;;;;;;;-5.57;85.81;99291.12;105289;1270;61506;-75
2022/03/03 01:55:06;;;;;;;353.10;170.60;;;;;;;-5.58;85.79;99289.56;105300;1270;61177;-74
2022/03/03 01:57:33;;;;;;;342.90;159.00;;;;;;;-5.59;85.98;99287.31;104987;1271;74795;-75
2022/03/03 02:00:00;;;;;;;340.70;157.30;;;;;;;-5.60;86.09;99286.61;105296;1270;61387;-75
2022/03/03 02:02:27;;;;;;;351.20;159.90;;;;;;;-5.63;86.19;99290.59;105307;1269;74204;-75
2022/03/03 02:04:54;;;;;;;358.10;166.30;;;;;;;-5.66;86.31;99288.34;105290;1270;61256;-76
2022/03/03 02:07:21;;;;;;;352.00;159.90;;;;;;;-5.67;86.21;99292.48;105289;1270;61349;-76
2022/03/03 02:09:48;;;;;;;347.60;160.70;;;;;;;-5.67;86.30;99292.14;105270;1270;75136;-74
2022/03/03 02:12:14;;;;;;;357.40;161.00;;;;;;;-5.68;86.45;99290.07;105364;1270;61358;-74
2022/03/03 02:14:43;;;;;;;303.80;141.60;;;;;;;-5.65;86.79;99294.39;105342;1269;61413;-74
2022/03/03 02:17:10;;;;;;;268.80;132.30;;;;;;;-5.61;86.98;99287.83;105332;1270;61343;-76
2022/03/03 02:19:37;;;;;;;298.30;137.60;;;;;;;-5.56;86.74;99280.23;105339;1270;61323;-74
2022/03/03 02:22:04;;;;;;;321.30;144.40;;;;;;;-5.53;86.80;99280.23;105326;1270;75788;-75
2022/03/03 02:24:31;;;;;;;283.90;136.10;;;;;;;-5.48;86.74;99277.14;105292;1270;68595;-75
2022/03/03 02:27:00;;;;;;;297.40;134.90;;;;;;;-5.51;86.46;99277.65;105348;1270;73906;-75
2022/03/03 02:29:28;;;;;;;320.00;146.50;;;;;;;-5.52;86.50;99280.58;105399;1270;61377;-75
2022/03/03 02:31:55;;;;;;;327.10;149.70;;;;;;;-5.55;86.34;99271.92;104637;1270;1003173;-74
2022/03/03 02:34:23;;;;;;;313.90;147.30;;;;;;;-5.59;86.44;99270.86;105292;1270;74645;-75
2022/03/03 02:36:49;;;;;;;319.70;143.20;;;;;;;-5.63;86.39;99272.25;105406;1270;70492;-76
2022/03/03 02:39:16;;;;;;;316.90;145.50;;;;;;;-5.67;86.09;99274.15;105296;1270;73319;-76
2022/03/03 02:41:43;;;;;;;290.60;141.30;;;;;;;-5.73;86.05;99273.95;105337;1270;61333;-75
2022/03/03 02:44:10;;;;;;;306.00;141.20;;;;;;;-5.77;86.14;99272.03;105333;1270;61287;-75
2022/03/03 02:46:36;;;;;;;279.30;132.80;;;;;;;-5.80;86.17;99268.39;105305;1270;75589;-75
2022/03/03 02:49:04;;;;;;;275.20;129.70;;;;;;;-5.80;86.39;99263.73;105321;1271;61666;-75
2022/03/03 02:51:31;;;;;;;297.00;136.80;;;;;;;-5.78;86.63;99261.14;105434;1270;71310;-75
2022/03/03 02:53:57;;;;;;;305.00;140.00;;;;;;;-5.78;86.75;99257.67;105350;1268;61404;-75
2022/03/03 02:56:24;;;;;;;330.90;144.00;;;;;;;-5.77;86.77;99257.14;105380;1270;61242;-75
2022/03/03 02:58:50;;;;;;;324.80;148.40;;;;;;;-5.79;86.66;99252.83;105262;1270;75056;-74
2022/03/03 03:01:17;;;;;;;338.40;155.10;;;;;;;-5.83;86.59;99250.58;105269;1270;61348;-75
2022/03/03 03:03:43;;;;;;;311.30;145.10;;;;;;;-5.87;86.71;99250.55;105331;1270;61310;-76
2022/03/03 03:06:14;;;;;;;315.10;149.00;;;;;;;-5.92;86.65;99249.00;104641;1270;1002989;-74
2022/03/03 03:08:42;;;;;;;302.20;143.30;;;;;;;-5.97;86.75;99254.01;105358;1270;61343;-76
2022/03/03 03:11:09;;;;;;;312.90;144.40;;;;;;;-6.02;86.90;99255.02;105327;1270;76379;-74
2022/03/03 03:13:35;;;;;;;301.90;144.30;;;;;;;-6.06;86.98;99259.16;105066;1270;68889;-75
2022/03/03 03:16:02;;;;;;;334.70;157.10;;;;;;;-6.10;87.11;99259.83;105318;1268;73133;-76
2022/03/03 03:18:29;;;;;;;305.00;151.70;;;;;;;-6.11;87.39;99257.23;105060;1271;61365;-74
2022/03/03 03:20:55;;;;;;;295.70;150.40;;;;;;;-6.11;87.63;99253.61;105248;1270;61785;-75
2022/03/03 03:23:23;;;;;;;300.20;147.80;;;;;;;-6.10;87.84;99258.80;105320;1270;61259;-75
2022/03/03 03:25:50;;;;;;;281.40;142.90;;;;;;;-6.10;88.04;99256.58;105394;1270;69272;-74
2022/03/03 03:28:18;;;;;;;254.30;134.90;;;;;;;-6.07;88.33;99258.30;105319;1270;73106;-75
2022/03/03 03:30:45;;;;;;;279.40;147.60;;;;;;;-6.03;88.51;99256.23;105163;1271;61307;-76
2022/03/03 03:33:12;;;;;;;262.70;135.90;;;;;;;-5.97;88.83;99251.95;105355;1270;61291;-75
2022/03/03 03:35:40;;;;;;;261.70;134.70;;;;;;;-5.93;88.90;99253.48;105345;1270;61202;-76
2022/03/03 03:38:07;;;;;;;274.70;134.50;;;;;;;-5.91;88.73;99253.30;105552;1270;69940;-76
2022/03/03 03:40:34;;;;;;;286.40;135.80;;;;;;;-5.89;88.64;99252.45;105361;1269;74465;-75
2022/03/03 03:43:01;;;;;;;289.40;141.50;;;;;;;-5.90;88.51;99254.15;105343;1270;61327;-75
2022/03/03 03:45:27;;;;;;;298.60;144.10;;;;;;;-5.91;88.59;99250.54;105071;1271;61363;-76
2022/03/03 03:47:54;;;;;;;304.50;147.10;;;;;;;-5.94;88.57;99254.36;105343;1270;61259;-76
2022/03/03 03:50:20;;;;;;;304.30;149.20;;;;;;;-5.98;88.50;99254.69;105059;1271;61398;-76
2022/03/03 03:52:47;;;;;;;301.20;144.70;;;;;;;-6.03;88.62;99253.64;105291;1270;73403;-75
2022/03/03 03:55:14;;;;;;;290.90;145.30;;;;;;;-6.07;88.64;99253.09;105328;1270;61401;-76
2022/03/03 03:57:40;;;;;;;302.20;146.90;;;;;;;-6.13;88.58;99253.77;105328;1270;61291;-75
2022/03/03 04:00:12;;;;;;;294.20;144.20;;;;;;;-6.19;88.60;99257.04;105320;1270;61637;-76
2022/03/03 04:02:42;;;;;;;292.60;151.90;;;;;;;-6.24;88.71;99248.02;103921;1270;1003171;-75
2022/03/03 04:05:10;;;;;;;299.20;154.10;;;;;;;-6.28;88.83;99241.09;105282;1270;73353;-75
2022/03/03 04:07:37;;;;;;;297.10;146.50;;;;;;;-6.33;88.92;99235.53;105444;1270;61397;-77
2022/03/03 04:10:04;;;;;;;286.10;145.20;;;;;;;-6.37;88.92;99229.81;105324;1270;61267;-75
2022/03/03 04:12:31;;;;;;;274.10;140.20;;;;;;;-6.42;89.16;99225.64;105336;1271;75241;-76
2022/03/03 04:14:57;;;;;;;277.10;136.80;;;;;;;-6.45;89.04;99221.48;105314;1268;61391;-75
2022/03/03 04:17:24;;;;;;;266.40;131.60;;;;;;;-6.44;89.15;99223.73;105294;1270;74236;-75
2022/03/03 04:19:50;;;;;;;275.70;138.30;;;;;;;-6.41;89.44;99218.73;105316;1270;61205;-75
2022/03/03 04:22:17;;;;;;;307.30;149.90;;;;;;;-6.40;89.59;99211.30;105105;1271;61365;-75
2022/03/03 04:24:43;;;;;;;302.40;156.50;;;;;;;-6.36;89.89;99215.11;105281;1270;61303;-76
2022/03/03 04:27:09;;;;;;;337.50;159.60;;;;;;;-6.33;90.29;99217.21;105290;1270;61329;-75
2022/03/03 04:29:36;;;;;;;346.50;177.40;;;;;;;-6.31;90.87;99221.71;105210;1270;61385;-76
2022/03/03 04:32:03;;;;;;;361.90;187.30;;;;;;;-6.26;91.36;99216.73;105067;1271;61307;-75
2022/03/03 04:34:30;;;;;;;351.20;188.50;;;;;;;-6.22;91.55;99213.80;105301;1270;61348;-74
2022/03/03 04:36:56;;;;;;;347.50;184.40;;;;;;;-6.20;91.63;99214.14;105322;1270;61364;-74
2022/03/03 04:39:23;;;;;;;355.40;181.30;;;;;;;-6.19;91.62;99210.87;105299;1270;70311;-75
2022/03/03 04:41:50;;;;;;;298.20;162.20;;;;;;;-6.16;91.61;99206.39;105283;1270;73590;-75
2022/03/03 04:44:16;;;;;;;286.10;152.00;;;;;;;-6.13;91.64;99204.14;105297;1270;61190;-74
2022/03/03 04:46:43;;;;;;;298.20;153.10;;;;;;;-6.10;91.55;99197.05;105276;1270;61276;-74
2022/03/03 04:49:09;;;;;;;320.90;160.80;;;;;;;-6.10;91.33;99194.12;105264;1270;61281;-74
2022/03/03 04:51:36;;;;;;;315.60;164.50;;;;;;;-6.15;91.53;99191.70;105249;1270;61270;-75
2022/03/03 04:54:05;;;;;;;323.00;157.70;;;;;;;-6.18;91.42;99189.95;105327;1270;73403;-74
2022/03/03 04:56:32;;;;;;;307.80;159.20;;;;;;;-6.18;91.47;99185.98;105455;1270;61299;-75
2022/03/03 04:58:59;;;;;;;303.50;157.60;;;;;;;-6.19;91.66;99188.22;104996;1270;61270;-74
2022/03/03 05:01:25;;;;;;;310.10;157.10;;;;;;;-6.21;91.73;99189.77;105326;1269;75431;-74
2022/03/03 05:03:52;;;;;;;297.10;156.70;;;;;;;-6.25;91.92;99195.30;105320;1270;61273;-74
2022/03/03 05:06:18;;;;;;;288.90;160.50;;;;;;;-6.24;92.45;99195.80;105278;1269;74314;-75
2022/03/03 05:08:45;;;;;;;284.10;156.40;;;;;;;-6.23;92.44;99195.30;105284;1270;61388;-76
2022/03/03 05:11:11;;;;;;;275.80;151.30;;;;;;;-6.23;92.43;99193.04;105276;1270;61385;-75
2022/03/03 05:13:38;;;;;;;277.00;150.00;;;;;;;-6.19;92.65;99191.85;105113;1270;61300;-74
2022/03/03 05:16:05;;;;;;;269.20;141.50;;;;;;;-6.11;92.75;99187.89;103799;1270;1003439;-76
2022/03/03 05:18:32;;;;;;;257.90;133.10;;;;;;;-6.06;92.56;99185.33;105275;1270;74416;-76
2022/03/03 05:20:59;;;;;;;284.00;144.20;;;;;;;-6.03;92.63;99186.54;105303;1270;61349;-74
2022/03/03 05:23:26;;;;;;;279.30;146.90;;;;;;;-6.00;92.63;99188.45;105288;1270;61811;-74
2022/03/03 05:25:52;;;;;;;290.70;149.00;;;;;;;-5.99;92.63;99183.42;105268;1269;61275;-76
2022/03/03 05:28:19;;;;;;;279.00;143.90;;;;;;;-5.99;92.51;99182.92;105197;1270;61276;-75
2022/03/03 05:30:46;;;;;;;282.70;145.30;;;;;;;-6.01;92.41;99183.42;105261;1269;73125;-75
2022/03/03 05:33:12;;;;;;;283.80;149.20;;;;;;;-6.05;92.30;99188.09;105280;1270;61352;-75
2022/03/03 05:35:40;;;;;;;280.70;147.30;;;;;;;-6.10;92.29;99189.11;105241;1269;61268;-74
2022/03/03 05:38:07;;;;;;;286.00;145.20;;;;;;;-6.13;92.09;99185.80;105336;1270;75287;-75
2022/03/03 05:40:33;;;;;;;283.40;147.90;;;;;;;-6.15;92.30;99187.20;105316;1269;69234;-75
2022/03/03 05:43:00;;;;;;;289.40;151.60;;;;;;;-6.15;92.29;99186.86;105318;1270;61259;-75
2022/03/03 05:45:27;;;;;;;266.30;143.30;;;;;;;-6.13;92.12;99189.61;105620;1270;61271;-74
2022/03/03 05:47:54;;;;;;;244.30;133.90;;;;;;;-6.10;92.18;99187.55;106975;1270;61347;-75
2022/03/03 05:50:20;;;;;;;231.10;124.50;;;;;;;-6.04;92.07;99189.81;106149;1268;76151;-77
2022/03/03 05:52:47;;;;;;;237.00;120.40;;;;;;;-6.00;92.00;99190.52;106016;1270;61353;-77
2022/03/03 05:55:13;;;;;;;226.90;127.10;;;;;;;-5.92;92.16;99191.20;106454;1270;61682;-74
2022/03/03 05:57:44;;;;;;;247.70;132.00;;;;;;;-5.83;92.21;99194.34;105363;1270;61271;-74
2022/03/03 06:00:17;;;;;;;253.70;130.40;;;;;;;-5.72;92.35;99194.70;105283;1270;61183;-75
2022/03/03 06:02:54;;;;;;;236.90;128.30;;;;;;;-5.64;92.16;99197.31;105413;1267;74890;-74
2022/03/03 06:05:25;;;;;;;237.70;128.50;;;;;;;-5.55;92.06;99197.84;105324;1270;69160;-73
2022/03/03 06:07:54;;;;;;;252.40;133.70;;;;;;;-5.45;92.18;99197.33;105073;1270;73214;-75
2022/03/03 06:10:23;;;;;;;233.40;132.60;;;;;;;-5.39;92.13;99193.17;105285;1269;61248;-75
2022/03/03 06:12:58;;;;;;;239.90;134.00;;;;;;;-5.33;92.14;99189.02;105177;1268;60955;-76
2022/03/03 06:15:26;;;;;;;241.90;142.30;;;;;;;-5.26;92.28;99188.50;105193;1270;75831;-75
2022/03/03 06:17:54;;;;;;;244.90;136.20;;;;;;;-5.19;92.25;99186.23;105258;1270;69398;-75
2022/03/03 06:20:23;;;;;;;218.70;126.00;;;;;;;-5.11;92.12;99184.16;105420;1269;73295;-75
2022/03/03 06:22:49;;;;;;;214.00;117.50;;;;;;;-5.00;92.36;99188.48;105324;1270;61363;-75
2022/03/03 06:25:16;;;;;;;188.70;109.80;;;;;;;-4.87;92.37;99191.05;105284;1270;61182;-75
2022/03/03 06:27:43;;;;;;;197.70;108.60;;;;;;;-4.72;92.56;99182.54;105309;1270;61162;-76
2022/03/03 06:30:09;;;;;;;193.60;112.00;;;;;;;-4.54;92.48;99179.88;105280;1269;69399;-75
2022/03/03 06:32:36;;;;;;;197.40;116.80;;;;;;;-4.39;92.50;99177.40;105010;1270;73128;-75
2022/03/03 06:35:03;;;;;;;211.60;119.50;;;;;;;-4.26;92.31;99181.34;105316;1270;61277;-75
2022/03/03 06:37:31;;;;;;;205.20;115.10;;;;;;;-4.13;92.08;99181.79;105274;1270;62238;-74
2022/03/03 06:39:58;;;;;;;199.60;116.30;;;;;;;-4.03;91.92;99180.53;105298;1270;75297;-74
2022/03/03 06:42:26;;;;;;;213.90;115.40;;;;;;;-3.94;91.77;99180.14;103795;1270;1003662;-74
2022/03/03 06:44:54;;;;;;;199.90;117.90;;;;;;;-3.85;91.85;99179.91;105290;1270;72601;-75
2022/03/03 06:47:21;;;;;;;205.40;114.10;;;;;;;-3.77;91.90;99173.43;105283;1271;61295;-74
2022/03/03 06:49:49;;;;;;;192.80;112.20;;;;;;;-3.69;91.85;99175.30;105269;1270;61362;-76
2022/03/03 06:52:17;;;;;;;177.00;108.30;;;;;;;-3.61;91.91;99176.63;105273;1270;76420;-74
2022/03/03 06:54:49;;;;;;;179.70;106.30;;;;;;;-3.50;91.84;99180.02;105345;1270;69521;-74
2022/03/03 06:57:20;;;;;;;179.90;103.70;;;;;;;-3.36;91.92;99178.88;105288;1270;72753;-74
2022/03/03 06:59:47;;;;;;;186.60;106.30;;;;;;;-3.21;92.00;99180.48;105321;1270;61258;-75
2022/03/03 07:02:14;;;;;;;156.10;98.40;;;;;;;-3.04;91.98;99184.00;105270;1270;61830;-75
2022/03/03 07:04:42;;;;;;;157.30;93.60;;;;;;;-2.96;91.67;99184.09;105335;1270;76351;-74
2022/03/03 07:07:11;;;;;;;165.20;97.60;;;;;;;-2.91;91.50;99183.86;105284;1270;69165;-75
2022/03/03 07:09:37;;;;;;;158.20;96.90;;;;;;;-2.84;91.56;99177.53;105263;1270;73322;-75
2022/03/03 07:12:04;;;;;;;174.10;100.20;;;;;;;-2.75;91.44;99176.58;105292;1270;61399;-76
2022/03/03 07:14:30;;;;;;;171.20;100.40;;;;;;;-2.68;91.48;99177.55;105293;1270;62058;-76
2022/03/03 07:17:04;;;;;;;154.80;91.10;;;;;;;-2.59;91.47;99176.59;105298;1270;75643;-75
2022/03/03 07:19:37;;;;;;;151.60;90.70;;;;;;;-2.51;91.37;99176.48;105315;1270;70064;-76
2022/03/03 07:22:22;;;;;;;153.80;92.20;;;;;;;-2.41;91.40;99177.61;105276;1270;73511;-75
2022/03/03 07:25:00;;;;;;;146.20;88.30;;;;;;;-2.30;91.27;99177.11;105200;1270;61312;-75
2022/03/03 07:27:27;;;;;;;142.90;86.00;;;;;;;-2.14;91.20;99171.70;105243;1270;61309;-75
2022/03/03 07:30:05;;;;;;;143.50;82.80;;;;;;;-2.07;90.67;99170.22;105264;1270;75796;-75
2022/03/03 07:32:33;;;;;;;141.70;87.70;;;;;;;-2.00;89.91;99170.65;105316;1269;70453;-77
2022/03/03 07:35:07;;;;;;;139.70;85.90;;;;;;;-1.93;89.68;99163.94;105269;1270;73598;-75
2022/03/03 07:37:47;;;;;;;139.50;85.60;;;;;;;-1.85;89.60;99165.23;105309;1270;61330;-76
2022/03/03 07:40:14;;;;;;;134.50;75.50;;;;;;;-1.74;89.35;99165.08;105023;1270;61204;-75
2022/03/03 07:42:41;;;;;;;153.10;89.60;;;;;;;-1.68;88.86;99162.71;105383;1270;75993;-75
2022/03/03 07:45:08;;;;;;;147.40;88.80;;;;;;;-1.57;88.99;99157.15;105295;1270;69354;-75
2022/03/03 07:47:35;;;;;;;144.40;86.20;;;;;;;-1.44;88.67;99157.11;105256;1269;71353;-74
2022/03/03 07:50:03;;;;;;;139.90;82.70;;;;;;;-1.31;88.37;99155.50;105262;1270;61371;-76
2022/03/03 07:52:29;;;;;;;140.50;88.80;;;;;;;-1.19;87.97;99156.36;105034;1270;61327;-76
2022/03/03 07:54:56;;;;;;;143.70;87.30;;;;;;;-1.08;87.67;99156.86;105294;1269;75584;-76
2022/03/03 07:57:25;;;;;;;148.60;86.40;;;;;;;-0.95;87.42;99149.66;105285;1270;61246;-74
2022/03/03 08:00:04;;;;;;;137.90;83.20;;;;;;;-0.85;87.28;99146.67;105308;1270;73127;-77
2022/03/03 08:02:32;;;;;;;126.50;76.70;;;;;;;-0.75;86.88;99139.70;105043;1270;61310;-75
2022/03/03 08:08:47;;;;;;;128.40;79.80;;;;;;;-0.60;85.57;99145.88;105277;1270;76112;-75
2022/03/03 08:11:17;;;;;;;117.10;77.00;;;;;;;-0.49;85.46;99140.44;105301;1270;70177;-74
2022/03/03 08:13:46;;;;;;;117.80;72.10;;;;;;;-0.37;85.11;99136.33;105315;1270;74473;-75
2022/03/03 08:16:13;;;;;;;121.10;70.70;;;;;;;-0.26;84.53;99136.80;104991;1270;61371;-75
2022/03/03 08:19:08;;;;;;;122.60;74.20;;;;;;;-0.14;84.48;99132.73;105288;1270;61236;-75
2022/03/03 08:21:36;;;;;;;116.80;71.50;;;;;;;0.07;83.95;99137.50;105458;1269;74729;-78
2022/03/03 08:24:03;;;;;;;114.20;67.50;;;;;;;0.23;83.17;99138.55;105278;1270;69306;-77
2022/03/03 08:26:30;;;;;;;106.80;67.90;;;;;;;0.39;82.52;99135.73;105283;1270;73946;-75
2022/03/03 08:28:57;;;;;;;108.20;70.40;;;;;;;0.54;82.21;99133.09;104307;1270;1003702;-75
2022/03/03 08:31:32;;;;;;;110.60;69.60;;;;;;;0.69;82.08;99137.44;105327;1270;61259;-76
2022/03/03 08:34:12;;;;;;;109.10;65.40;;;;;;;0.82;81.13;99135.74;105278;1270;75295;-75
2022/03/03 08:36:47;;;;;;;97.00;63.40;;;;;;;0.98;80.53;99133.05;105311;1269;69307;-76
2022/03/03 08:39:16;;;;;;;86.70;57.80;;;;;;;1.11;79.52;99131.31;105251;1269;73253;-76
2022/03/03 08:41:44;;;;;;;95.00;60.50;;;;;;;1.17;77.01;99133.95;104675;1270;1003063;-76
2022/03/03 08:44:12;;;;;;;86.90;54.20;;;;;;;1.13;77.56;99129.69;105437;1270;61136;-77
2022/03/03 08:46:41;;;;;;;91.90;56.60;;;;;;;1.25;77.69;99130.41;105199;1271;75834;-74
2022/03/03 08:49:11;;;;;;;88.30;57.30;;;;;;;1.46;77.92;99127.20;105223;1271;69386;-76
2022/03/03 08:51:39;;;;;;;79.80;52.30;;;;;;;1.65;77.16;99121.93;105061;1271;74180;-75
2022/03/03 08:54:06;;;;;;;82.30;53.50;;;;;;;1.76;76.51;99120.57;104902;1271;62842;-75
2022/03/03 08:56:34;;;;;;;82.60;54.40;;;;;;;1.80;75.71;99122.23;105128;1271;61248;-76
2022/03/03 08:59:05;;;;;;;92.00;56.20;;;;;;;1.82;75.43;99119.01;105127;1271;76005;-76
2022/03/03 09:01:32;;;;;;;84.20;53.30;;;;;;;1.81;75.36;99117.29;105103;1271;68773;-76
2022/03/03 09:04:03;;;;;;;75.40;48.00;;;;;;;1.80;74.81;99112.41;105118;1274;73739;-74
2022/03/03 09:06:32;;;;;;;82.30;51.10;;;;;;;1.84;74.51;99116.66;105055;1273;61327;-76
2022/03/03 09:08:59;;;;;;;75.40;50.10;;;;;;;1.87;74.39;99114.65;105037;1271;60447;-75
2022/03/03 09:11:25;;;;;;;84.30;55.80;;;;;;;1.88;74.03;99111.12;105049;1274;76208;-75
2022/03/03 09:13:52;;;;;;;85.10;54.10;;;;;;;1.90;73.98;99109.82;105117;1274;70354;-76
2022/03/03 09:16:19;;;;;;;90.90;57.90;;;;;;;1.92;73.64;99105.20;104954;1274;61472;-77
2022/03/03 09:18:46;;;;;;;84.00;55.00;;;;;;;1.94;73.22;99108.83;105281;1270;61422;-77
2022/03/03 09:21:14;;;;;;;74.50;48.50;;;;;;;1.95;72.89;99106.01;105382;1268;62026;-77
2022/03/03 09:23:42;;;;;;;78.20;51.80;;;;;;;1.95;72.30;99105.12;105583;1270;76598;-76
2022/03/03 09:26:09;;;;;;;80.20;53.20;;;;;;;1.95;72.15;99098.63;105313;1270;70530;-76
2022/03/03 09:28:35;;;;;;;67.10;46.00;;;;;;;1.99;72.07;99095.35;105133;1271;72314;-76
2022/03/03 09:31:02;;;;;;;78.10;49.60;;;;;;;2.05;71.16;99100.26;105290;1270;61305;-76
2022/03/03 09:33:29;;;;;;;76.90;48.30;;;;;;;2.07;70.24;99095.11;105084;1270;61599;-76
2022/03/03 09:35:55;;;;;;;67.20;47.50;;;;;;;2.10;70.31;99090.83;105346;1270;76274;-75
2022/03/03 09:38:22;;;;;;;80.20;51.20;;;;;;;2.17;70.52;99085.00;105350;1270;69210;-75
2022/03/03 09:40:49;;;;;;;80.50;51.10;;;;;;;2.25;70.49;99084.73;105264;1269;61292;-75
2022/03/03 09:43:17;;;;;;;77.00;49.90;;;;;;;2.33;70.35;99084.66;105117;1270;61383;-76
2022/03/03 09:45:43;;;;;;;81.70;48.80;;;;;;;2.42;70.25;99087.34;104591;1270;1002541;-76
2022/03/03 09:48:10;;;;;;;66.00;44.10;;;;;;;2.51;69.13;99088.30;105509;1269;61529;-77
2022/03/03 09:50:39;;;;;;;65.10;41.60;;;;;;;2.52;68.01;99090.89;105112;1270;61179;-75
2022/03/03 09:53:16;;;;;;;68.10;42.80;;;;;;;2.56;68.34;99090.05;105389;1268;74491;-76
2022/03/03 09:55:45;;;;;;;63.80;41.00;;;;;;;2.66;68.33;99082.02;105287;1270;61243;-77
2022/03/03 09:58:13;;;;;;;67.90;43.90;;;;;;;2.74;67.68;99082.08;105392;1270;61440;-76
2022/03/03 10:00:41;;;;;;;75.50;47.90;;;;;;;2.80;67.84;99081.02;105053;1269;75388;-76
2022/03/03 10:03:10;;;;;;;63.20;44.10;;;;;;;2.85;66.79;99085.59;105514;1270;68681;-77
2022/03/03 10:05:47;;;;;;;53.70;34.80;;;;;;;2.89;65.92;99080.70;105422;1269;74463;-75
2022/03/03 10:08:15;;;;;;;49.40;33.30;;;;;;;2.92;65.46;99081.65;106108;1270;61172;-75
2022/03/03 10:10:44;;;;;;;53.50;35.50;;;;;;;2.97;64.01;99077.80;107112;1270;61375;-75
2022/03/03 10:13:16;;;;;;;50.20;33.20;;;;;;;2.96;63.26;99077.84;107212;1267;75410;-75
2022/03/03 10:15:45;;;;;;;52.70;35.40;;;;;;;3.02;64.03;99074.98;105315;1270;70138;-76
2022/03/03 10:18:14;;;;;;;41.40;29.10;;;;;;;3.19;64.42;99075.63;105373;1269;73195;-79
2022/03/03 10:20:51;;;;;;;41.40;28.00;;;;;;;3.36;64.24;99077.63;105314;1271;61391;-76
2022/03/03 10:23:22;;;;;;;42.90;28.00;;;;;;;3.48;62.41;99072.61;105339;1270;61851;-78
2022/03/03 10:25:52;;;;;;;41.90;29.60;;;;;;;3.59;62.72;99072.91;105358;1270;75880;-76
2022/03/03 10:28:23;;;;;;;44.40;30.00;;;;;;;3.65;59.86;99074.13;105307;1270;68912;-76
2022/03/03 10:30:49;;;;;;;;;;;;;;;3.50;59.11;99074.83;105442;1270;74384;-76
2022/03/03 10:33:19;;;;;;;37.30;27.20;;;;;;;3.46;59.82;99069.70;105186;1271;61382;-77
2022/03/03 10:36:15;;;;;;;31.70;24.90;;;;;;;3.48;59.67;99067.52;105208;1270;62222;-77
2022/03/03 10:38:56;;;;;;;37.00;25.30;;;;;;;3.52;57.63;99065.99;105427;1270;76130;-76
2022/03/03 10:41:34;;;;;;;;;;;;;;;3.55;57.36;99061.31;105577;1270;68712;-77
2022/03/03 10:44:04;;;;;;;38.50;24.40;;;;;;;3.54;56.14;99059.05;105487;1269;74327;-76
2022/03/03 10:46:31;;;;;;;33.60;24.70;;;;;;;3.62;57.39;99060.17;105298;1270;61636;-76
2022/03/03 10:48:58;;;;;;;39.50;27.10;;;;;;;3.70;57.18;99061.96;105511;1270;61049;-77
2022/03/03 10:51:25;;;;;;;39.60;27.70;;;;;;;3.79;57.07;99050.20;105311;1270;76531;-76
2022/03/03 10:53:56;;;;;;;39.00;28.80;;;;;;;3.84;55.65;99048.98;105810;1270;68405;-76
2022/03/03 10:56:23;;;;;;;45.10;31.40;;;;;;;3.81;55.01;99046.45;105946;1270;73475;-76
2022/03/03 10:59:00;;;;;;;39.20;28.90;;;;;;;3.85;55.68;99041.36;105830;1270;61147;-77
2022/03/03 11:01:30;;;;;;;42.70;30.60;;;;;;;3.89;54.34;99037.35;106293;1270;61194;-77
2022/03/03 11:03:57;;;;;;;40.40;30.60;;;;;;;3.88;53.83;99032.44;106493;1270;75139;-75
2022/03/03 11:06:29;;;;;;;41.70;30.30;;;;;;;3.89;53.79;99027.33;108599;1269;69301;-75
2022/03/03 11:08:57;;;;;;;40.60;28.60;;;;;;;3.94;54.88;99030.48;108665;1268;73329;-75